Nefterudovoz-29m — UIMI — position and weather

sailwx.info

Track history (hours):
 
Tides and Currents Weather Stations Pressure Air Temp Water Temp Dewpoint Dewpoint Depression Visibility Wind Speed Wind Dir Waves Ship Positions

Nefterudovoz-29m

Last reported at 2016-Jun-24 12:14 UTC. Time now 2016-Jun-24 23:58 UTC.
Position N 44°24' E 034°09'.

Length 119 m; draft 3.5 m.

Type: Cargo ship. MMSI: 273345300.

Date/timePositionNaut miles runAvg speedWind from/ knotsBaromVisibWave heightAir tempDewpointWater temp
2016-Jun-24 12:14N 44°24' E 034°09'3 3.9
2016-Jun-24 11:33N 44°26' E 034°13'8 7.6
2016-Jun-24 10:34N 44°29' E 034°22'7 7.4
2016-Jun-24 09:34N 44°33' E 034°31'4 3.8
2016-Jun-24 08:33N 44°34' E 034°36'7 6.9
2016-Jun-24 07:33N 44°37' E 034°45'7 7.0
2016-Jun-24 06:33N 44°40' E 034°53'80 6.6
2016-Jun-23 18:26N 45°19' E 036°32'6 7.1
2016-Jun-23 17:33N 45°23' E 036°40'5 5.2
2016-Jun-23 16:31N 45°28' E 036°38'109 6.3
2016-Jun-22 23:16N 46°59' E 038°05'5 7.5
2016-Jun-22 22:33N 47°00' E 038°13'7 7.2
2016-Jun-22 21:32N 47°01' E 038°23'21 6.3
2016-Jun-22 18:07N 47°03' E 038°55'  
Track history (hours):
 
Tides and Currents Weather Stations Pressure Air Temp Water Temp Dewpoint Dewpoint Depression Visibility Wind Speed Wind Dir Waves Ship Positions

Nefterudovoz-29m

Last reported at 2016-Jun-24 12:14 UTC. Time now 2016-Jun-24 23:58 UTC.
Position N 44°24' E 034°09'.

Length 119 m; draft 3.5 m.

Type: Cargo ship. MMSI: 273345300.

Date/timePositionNaut miles runAvg speedWind from/ knotsBaromVisibWave heightAir tempDewpointWater temp
2016-Jun-24 12:14N 44°24' E 034°09'3 3.9
2016-Jun-24 11:33N 44°26' E 034°13'8 7.6
2016-Jun-24 10:34N 44°29' E 034°22'7 7.4
2016-Jun-24 09:34N 44°33' E 034°31'4 3.8
2016-Jun-24 08:33N 44°34' E 034°36'7 6.9
2016-Jun-24 07:33N 44°37' E 034°45'7 7.0
2016-Jun-24 06:33N 44°40' E 034°53'80 6.6
2016-Jun-23 18:26N 45°19' E 036°32'6 7.1
2016-Jun-23 17:33N 45°23' E 036°40'5 5.2
2016-Jun-23 16:31N 45°28' E 036°38'109 6.3
2016-Jun-22 23:16N 46°59' E 038°05'5 7.5
2016-Jun-22 22:33N 47°00' E 038°13'7 7.2
2016-Jun-22 21:32N 47°01' E 038°23'21 6.3
2016-Jun-22 18:07N 47°03' E 038°55'  

Dump ship's entire track history